SX4 weather

CLOSED Rivipere Ouelle Airport
Quebec, Canada

Public forecast

Using degrees Celsius for public forecast. Weather courtesy of forecast.io.

METAR (pilot weather report)

Closest report is CFB Bagotville, 66.8 nm (123.7 km) NW. Retrieved 2019/09/19 03:00 UTC (53 minutes ago):

CYBG 190300Z 11005KT 25SM SKC 07/04 A3029 RMK SLP263

TAF (pilot weather forecast)

Forecast is more than 12 hours old.

Closest forecast is Charlevoix Airport, 13.2 nm (24.4 km) NW. Retrieved 2018/06/10 18:00 UTC (1 year ago):

TAF CYML 101730Z 1018/1106 12005KT P6SM FEW060 FM102100 14006KT P6SM SCT080 BECMG 1021/1023 VRB03KT RMK NXT FCST BY 110000Z